Time;durP1;ratioP1;P1;durP2;ratioP2;P2;SDS_P1;SDS_P2;PMS_P1;PMS_P2;Temp;Humidity;BMP_temperature;BMP_pressure;BME280_temperature;BME280_humidity;BME280_pressure;Samples;Min_cycle;Max_cycle;Signal;HPM_P1;HPM_P2
2022/02/25 00:00:34;;;;;;;0.20;0.20;;;;;;;;;;1844944;77;26315;-43
2022/02/25 00:03:02;;;;;;;0.23;0.23;;;;;;;;;;1840348;77;26925;-44
2022/02/25 00:05:29;;;;;;;0.37;0.37;;;;;;;;;;1830706;77;26228;-44
2022/02/25 00:07:56;;;;;;;0.25;0.25;;;;;;;;;;1847421;77;26275;-43
2022/02/25 00:10:24;;;;;;;0.10;0.10;;;;;;;;;;1787875;79;26271;-43
2022/02/25 00:12:51;;;;;;;1.07;0.28;;;;;;;;;;1803071;79;25794;-46
2022/02/25 00:15:18;;;;;;;0.30;0.30;;;;;;;;;;1799365;79;26267;-43
2022/02/25 00:17:46;;;;;;;0.20;0.20;;;;;;;;;;1832642;76;26339;-42
2022/02/25 00:20:13;;;;;;;0.20;0.20;;;;;;;;;;1845706;77;26265;-43
2022/02/25 00:22:41;;;;;;;0.20;0.20;;;;;;;;;;1849022;77;27257;-44
2022/02/25 00:25:10;;;;;;;0.13;0.13;;;;;;;;;;1849252;77;26280;-43
2022/02/25 00:27:38;;;;;;;0.15;0.15;;;;;;;;;;1849131;77;26238;-44
2022/02/25 00:30:06;;;;;;;0.40;0.40;;;;;;;;;;1859012;77;26195;-44
2022/02/25 00:32:33;;;;;;;0.20;0.20;;;;;;;;;;1844941;77;26703;-44
2022/02/25 00:35:01;;;;;;;0.10;0.10;;;;;;;;;;1842679;77;26775;-43
2022/02/25 00:37:28;;;;;;;0.20;0.20;;;;;;;;;;1849267;77;26351;-43
2022/02/25 00:39:56;;;;;;;0.20;0.20;;;;;;;;;;1831121;77;26304;-43
2022/02/25 00:42:24;;;;;;;0.20;0.20;;;;;;;;;;1849327;77;27614;-44
2022/02/25 00:44:51;;;;;;;0.20;0.20;;;;;;;;;;1837906;76;26267;-43
2022/02/25 00:47:19;;;;;;;0.10;0.10;;;;;;;;;;1845522;77;26743;-43
2022/02/25 00:49:46;;;;;;;0.20;0.20;;;;;;;;;;1847855;76;26847;-43
2022/02/25 00:52:13;;;;;;;0.10;0.10;;;;;;;;;;1856177;77;26290;-45
2022/02/25 00:54:40;;;;;;;0.20;0.20;;;;;;;;;;1852756;77;26278;-43
2022/02/25 00:57:08;;;;;;;0.20;0.20;;;;;;;;;;1848773;77;26466;-42
2022/02/25 00:59:35;;;;;;;0.88;0.30;;;;;;;;;;1844217;76;26273;-43
2022/02/25 01:02:02;;;;;;;0.20;0.20;;;;;;;;;;1853700;77;26336;-43
2022/02/25 01:04:29;;;;;;;0.17;0.17;;;;;;;;;;1845411;77;26243;-46
2022/02/25 01:06:57;;;;;;;0.30;0.20;;;;;;;;;;1834462;77;26272;-45
2022/02/25 01:09:25;;;;;;;0.20;0.20;;;;;;;;;;1841069;77;26905;-44
2022/02/25 01:11:53;;;;;;;0.17;0.17;;;;;;;;;;1847120;77;26282;-44
2022/02/25 01:14:20;;;;;;;0.17;0.17;;;;;;;;;;1839341;77;26797;-44
2022/02/25 01:16:47;;;;;;;0.45;0.20;;;;;;;;;;1841673;77;26202;-43
2022/02/25 01:19:15;;;;;;;0.10;0.10;;;;;;;;;;1845225;77;26342;-43
2022/02/25 01:21:42;;;;;;;0.10;0.10;;;;;;;;;;1841036;77;26277;-44
2022/02/25 01:24:09;;;;;;;0.10;0.10;;;;;;;;;;1842593;77;26635;-43
2022/02/25 01:26:37;;;;;;;0.15;0.15;;;;;;;;;;1840700;76;26262;-43
2022/02/25 01:29:04;;;;;;;0.10;0.10;;;;;;;;;;1842669;77;26276;-44
2022/02/25 01:31:31;;;;;;;0.10;0.10;;;;;;;;;;1848781;77;26261;-44
2022/02/25 01:33:59;;;;;;;0.13;0.13;;;;;;;;;;1848880;77;26238;-42
2022/02/25 01:36:26;;;;;;;0.10;0.10;;;;;;;;;;1848979;77;26241;-42
2022/02/25 01:38:53;;;;;;;0.10;0.10;;;;;;;;;;1841700;76;26265;-43
2022/02/25 01:41:20;;;;;;;0.20;0.20;;;;;;;;;;1832037;77;26760;-44
2022/02/25 01:43:48;;;;;;;0.10;0.10;;;;;;;;;;1841099;76;26796;-44
2022/02/25 01:46:15;;;;;;;0.10;0.10;;;;;;;;;;1849033;77;26750;-43
2022/02/25 01:48:42;;;;;;;0.10;0.10;;;;;;;;;;1839129;76;26193;-43
2022/02/25 01:51:10;;;;;;;0.10;0.10;;;;;;;;;;1851552;77;26269;-45
2022/02/25 01:53:37;;;;;;;0.23;0.13;;;;;;;;;;1867069;76;26606;-43
2022/02/25 01:56:04;;;;;;;0.10;0.10;;;;;;;;;;1857995;76;26292;-44
2022/02/25 01:58:31;;;;;;;0.10;0.10;;;;;;;;;;1850152;76;26710;-43
2022/02/25 02:00:59;;;;;;;0.10;0.10;;;;;;;;;;1858373;76;26736;-43
2022/02/25 02:03:27;;;;;;;0.10;0.10;;;;;;;;;;1856889;77;26256;-42
2022/02/25 02:05:55;;;;;;;1.25;0.13;;;;;;;;;;1861922;76;26782;-45
2022/02/25 02:08:22;;;;;;;0.10;0.10;;;;;;;;;;1844814;77;26347;-43
2022/02/25 02:10:50;;;;;;;0.20;0.20;;;;;;;;;;1848115;76;26331;-42
2022/02/25 02:13:17;;;;;;;0.10;0.10;;;;;;;;;;1855196;76;26312;-44
2022/02/25 02:15:44;;;;;;;0.17;0.17;;;;;;;;;;1854309;77;26303;-44
2022/02/25 02:18:11;;;;;;;0.03;0.03;;;;;;;;;;1838039;77;26881;-44
2022/02/25 02:20:39;;;;;;;0.20;0.20;;;;;;;;;;1848723;77;26740;-43
2022/02/25 02:23:06;;;;;;;0.13;0.13;;;;;;;;;;1831925;77;26681;-42
2022/02/25 02:25:34;;;;;;;0.00;0.00;;;;;;;;;;1854627;77;26335;-44
2022/02/25 02:28:20;;;;;;;0.10;0.10;;;;;;;;;;1853793;76;26378;-44
2022/02/25 02:30:49;;;;;;;0.10;0.10;;;;;;;;;;1851593;77;26785;-43
2022/02/25 02:33:17;;;;;;;0.20;0.20;;;;;;;;;;1854212;77;26736;-43
2022/02/25 02:35:44;;;;;;;0.10;0.10;;;;;;;;;;1854490;77;26382;-42
2022/02/25 02:38:13;;;;;;;0.20;0.20;;;;;;;;;;1846029;76;26338;-43
2022/02/25 02:40:40;;;;;;;0.10;0.10;;;;;;;;;;1857669;77;26262;-43
2022/02/25 02:43:10;;;;;;;0.10;0.10;;;;;;;;;;1857650;77;26257;-43
2022/02/25 02:45:40;;;;;;;0.20;0.20;;;;;;;;;;1856940;76;26281;-43
2022/02/25 02:48:07;;;;;;;0.10;0.10;;;;;;;;;;1849848;76;26204;-43
2022/02/25 02:50:35;;;;;;;0.10;0.10;;;;;;;;;;1853852;77;26772;-42
2022/02/25 02:53:02;;;;;;;0.03;0.03;;;;;;;;;;1857564;77;26680;-46
2022/02/25 02:55:29;;;;;;;0.10;0.10;;;;;;;;;;1857552;76;26284;-47
2022/02/25 02:57:58;;;;;;;0.10;0.10;;;;;;;;;;1856530;77;26241;-43
2022/02/25 03:00:25;;;;;;;0.00;0.00;;;;;;;;;;1853919;76;26842;-42
2022/02/25 03:02:52;;;;;;;0.08;0.08;;;;;;;;;;1860434;76;26277;-43
2022/02/25 03:05:20;;;;;;;0.10;0.10;;;;;;;;;;1861062;76;26245;-44
2022/02/25 03:07:47;;;;;;;0.10;0.10;;;;;;;;;;1858096;76;26893;-43
2022/02/25 03:10:15;;;;;;;0.10;0.10;;;;;;;;;;1853267;76;26819;-47
2022/02/25 03:12:43;;;;;;;0.88;0.42;;;;;;;;;;1857762;77;26269;-43
2022/02/25 03:15:11;;;;;;;0.15;0.15;;;;;;;;;;1864810;76;26319;-45
2022/02/25 03:17:39;;;;;;;0.28;0.10;;;;;;;;;;1857083;76;26357;-42
2022/02/25 03:20:07;;;;;;;0.10;0.10;;;;;;;;;;1845096;76;26190;-43
2022/02/25 03:22:35;;;;;;;1.00;0.10;;;;;;;;;;1863873;76;26247;-43
2022/02/25 03:25:03;;;;;;;0.20;0.20;;;;;;;;;;1857821;77;26264;-44
2022/02/25 03:27:31;;;;;;;0.10;0.10;;;;;;;;;;1855081;76;26659;-42
2022/02/25 03:29:58;;;;;;;0.20;0.20;;;;;;;;;;1857642;77;26265;-43
2022/02/25 03:32:25;;;;;;;0.20;0.20;;;;;;;;;;1860515;76;26642;-43
2022/02/25 03:34:53;;;;;;;0.10;0.10;;;;;;;;;;1849014;76;26162;-44
2022/02/25 03:37:20;;;;;;;0.10;0.10;;;;;;;;;;1858478;76;26687;-43
2022/02/25 03:39:48;;;;;;;1.65;0.20;;;;;;;;;;1850896;76;26193;-43
2022/02/25 03:42:15;;;;;;;0.10;0.10;;;;;;;;;;1857705;77;26712;-45
2022/02/25 03:44:42;;;;;;;0.15;0.15;;;;;;;;;;1856593;77;26701;-43
2022/02/25 03:47:10;;;;;;;0.10;0.10;;;;;;;;;;1856976;77;26746;-43
2022/02/25 03:49:37;;;;;;;0.10;0.10;;;;;;;;;;1855593;76;26319;-43
2022/02/25 03:52:05;;;;;;;0.03;0.03;;;;;;;;;;1848767;76;26752;-45
2022/02/25 03:54:33;;;;;;;0.10;0.10;;;;;;;;;;1866198;76;26607;-43
2022/02/25 03:57:01;;;;;;;0.10;0.10;;;;;;;;;;1856431;76;26293;-43
2022/02/25 03:59:28;;;;;;;0.10;0.00;;;;;;;;;;1852108;77;26338;-43
2022/02/25 04:01:55;;;;;;;0.10;0.05;;;;;;;;;;1852457;77;26406;-44
2022/02/25 04:04:23;;;;;;;0.10;0.08;;;;;;;;;;1853909;77;26324;-44
2022/02/25 04:06:51;;;;;;;0.08;0.08;;;;;;;;;;1846995;77;26326;-45
2022/02/25 04:09:18;;;;;;;0.10;0.10;;;;;;;;;;1841109;77;26245;-43
2022/02/25 04:11:50;;;;;;;0.00;0.00;;;;;;;;;;1856656;77;26244;-43
2022/02/25 04:14:20;;;;;;;0.10;0.10;;;;;;;;;;1838830;76;26754;-43
2022/02/25 04:16:48;;;;;;;0.10;0.10;;;;;;;;;;1850140;77;26782;-45
2022/02/25 04:19:17;;;;;;;0.15;0.15;;;;;;;;;;1856960;76;26312;-44
2022/02/25 04:21:45;;;;;;;2.40;0.20;;;;;;;;;;1854218;76;26307;-45
2022/02/25 04:24:12;;;;;;;0.53;0.10;;;;;;;;;;1859629;76;26179;-43
2022/02/25 04:26:40;;;;;;;0.28;0.20;;;;;;;;;;1858526;76;26323;-46
2022/02/25 04:29:07;;;;;;;0.10;0.03;;;;;;;;;;1857284;76;26277;-44
2022/02/25 04:31:34;;;;;;;0.00;0.00;;;;;;;;;;1855804;76;26242;-43
2022/02/25 04:34:02;;;;;;;0.20;0.20;;;;;;;;;;1859369;76;26328;-46
2022/02/25 04:36:29;;;;;;;0.15;0.15;;;;;;;;;;1858338;76;26780;-43
2022/02/25 04:38:56;;;;;;;0.10;0.10;;;;;;;;;;1858205;76;26766;-43
2022/02/25 04:41:23;;;;;;;1.25;0.15;;;;;;;;;;1854666;76;26354;-43
2022/02/25 04:43:51;;;;;;;1.45;0.20;;;;;;;;;;1858543;76;26194;-43
2022/02/25 04:46:19;;;;;;;0.00;0.00;;;;;;;;;;1853791;76;26376;-44
2022/02/25 04:48:47;;;;;;;0.00;0.00;;;;;;;;;;1856838;76;26737;-43
2022/02/25 04:51:18;;;;;;;0.20;0.20;;;;;;;;;;1840603;77;26393;-44
2022/02/25 04:53:46;;;;;;;0.82;0.10;;;;;;;;;;1851136;77;26314;-44
2022/02/25 04:56:14;;;;;;;0.20;0.10;;;;;;;;;;1848718;76;26356;-43
2022/02/25 04:58:41;;;;;;;0.15;0.15;;;;;;;;;;1845071;77;26210;-43
2022/02/25 05:01:08;;;;;;;0.10;0.10;;;;;;;;;;1848514;77;26637;-45
2022/02/25 05:03:37;;;;;;;0.25;0.20;;;;;;;;;;1850208;77;26327;-43
2022/02/25 05:06:04;;;;;;;1.45;0.50;;;;;;;;;;1848146;76;26257;-44
2022/02/25 05:08:32;;;;;;;1.17;0.20;;;;;;;;;;1845815;77;26269;-44
2022/02/25 05:11:00;;;;;;;0.45;0.20;;;;;;;;;;1848292;77;26556;-43
2022/02/25 05:13:27;;;;;;;0.57;0.20;;;;;;;;;;1850388;77;26329;-45
2022/02/25 05:21:25;;;;;;;0.10;0.10;;;;;;;;;;1847717;77;26331;-46
2022/02/25 05:23:52;;;;;;;0.10;0.10;;;;;;;;;;1848293;77;26731;-43
2022/02/25 05:26:22;;;;;;;0.20;0.20;;;;;;;;;;1847008;77;26701;-43
2022/02/25 05:28:50;;;;;;;0.85;0.30;;;;;;;;;;1847305;76;26266;-42
2022/02/25 05:31:17;;;;;;;0.10;0.10;;;;;;;;;;1849049;77;26273;-44
2022/02/25 05:33:45;;;;;;;0.10;0.10;;;;;;;;;;1852245;77;26312;-43
2022/02/25 05:36:13;;;;;;;0.20;0.20;;;;;;;;;;1850831;77;26861;-42
2022/02/25 05:38:41;;;;;;;0.40;0.20;;;;;;;;;;1841022;77;26294;-43
2022/02/25 05:41:08;;;;;;;1.42;0.23;;;;;;;;;;1848529;77;26635;-43
2022/02/25 05:43:35;;;;;;;1.47;0.30;;;;;;;;;;1849433;77;26800;-43
2022/02/25 05:46:02;;;;;;;5.40;0.30;;;;;;;;;;1839102;77;26423;-42
2022/02/25 05:48:30;;;;;;;1.22;0.45;;;;;;;;;;1835365;77;26250;-42
2022/02/25 05:50:57;;;;;;;0.37;0.30;;;;;;;;;;1832795;77;26724;-43
2022/02/25 05:53:24;;;;;;;0.78;0.30;;;;;;;;;;1842273;77;26309;-43
2022/02/25 05:55:51;;;;;;;1.40;0.57;;;;;;;;;;1841309;77;26350;-43
2022/02/25 05:58:19;;;;;;;0.68;0.40;;;;;;;;;;1844379;77;26278;-43
2022/02/25 06:00:46;;;;;;;0.20;0.20;;;;;;;;;;1860478;76;26269;-43
2022/02/25 06:03:13;;;;;;;2.22;0.40;;;;;;;;;;1856211;76;26289;-44
2022/02/25 06:05:41;;;;;;;1.07;0.40;;;;;;;;;;1859801;76;26276;-45
2022/02/25 06:08:08;;;;;;;2.12;0.40;;;;;;;;;;1854913;77;26326;-45
2022/02/25 06:10:35;;;;;;;0.50;0.45;;;;;;;;;;1847115;77;26308;-43
2022/02/25 06:13:03;;;;;;;2.15;0.68;;;;;;;;;;1828331;77;26731;-43
2022/02/25 06:15:30;;;;;;;3.58;0.72;;;;;;;;;;1838308;77;26342;-44
2022/02/25 06:17:58;;;;;;;3.30;0.80;;;;;;;;;;1849440;76;26690;-43
2022/02/25 06:20:25;;;;;;;4.15;0.70;;;;;;;;;;1856911;76;26265;-43
2022/02/25 06:22:53;;;;;;;1.20;0.80;;;;;;;;;;1857531;76;26269;-44
2022/02/25 06:25:20;;;;;;;2.98;0.70;;;;;;;;;;1859580;76;26799;-42
2022/02/25 06:27:47;;;;;;;1.77;0.75;;;;;;;;;;1856793;76;26761;-44
2022/02/25 06:30:15;;;;;;;3.50;0.72;;;;;;;;;;1854183;76;27504;-43
2022/02/25 06:32:43;;;;;;;1.67;0.90;;;;;;;;;;1858684;76;26206;-43
2022/02/25 06:35:11;;;;;;;4.83;0.90;;;;;;;;;;1847641;76;26318;-44
2022/02/25 06:37:39;;;;;;;1.72;0.85;;;;;;;;;;1853024;76;26709;-43
2022/02/25 06:40:07;;;;;;;1.60;0.80;;;;;;;;;;1853713;76;26252;-43
2022/02/25 06:42:34;;;;;;;4.58;0.72;;;;;;;;;;1853842;76;26838;-43
2022/02/25 06:45:02;;;;;;;1.65;0.90;;;;;;;;;;1852454;76;26795;-43
2022/02/25 06:47:29;;;;;;;2.12;0.70;;;;;;;;;;1853836;76;26316;-43
2022/02/25 06:49:56;;;;;;;3.83;0.60;;;;;;;;;;1857134;76;26260;-45
2022/02/25 06:52:23;;;;;;;1.35;0.93;;;;;;;;;;1855671;76;26382;-43
2022/02/25 06:54:51;;;;;;;1.80;0.90;;;;;;;;;;1856049;76;26265;-42
2022/02/25 06:57:18;;;;;;;2.55;1.05;;;;;;;;;;1856751;76;27169;-42
2022/02/25 06:59:46;;;;;;;3.00;0.82;;;;;;;;;;1854965;76;26307;-43
2022/02/25 07:02:14;;;;;;;1.02;0.85;;;;;;;;;;1858466;76;26292;-43
2022/02/25 07:04:41;;;;;;;2.20;0.75;;;;;;;;;;1853891;77;26258;-41
2022/02/25 07:07:08;;;;;;;2.33;0.80;;;;;;;;;;1854288;76;26299;-43
2022/02/25 07:09:35;;;;;;;2.60;0.80;;;;;;;;;;1856589;76;26261;-43
2022/02/25 07:12:03;;;;;;;1.37;0.70;;;;;;;;;;1860825;76;26899;-43
2022/02/25 07:14:31;;;;;;;1.22;0.70;;;;;;;;;;1852043;76;26332;-47
2022/02/25 07:16:58;;;;;;;2.25;0.82;;;;;;;;;;1851375;76;26793;-45
2022/02/25 07:19:25;;;;;;;2.85;0.70;;;;;;;;;;1856901;76;26261;-44
2022/02/25 07:21:52;;;;;;;0.60;0.60;;;;;;;;;;1851168;76;26258;-42
2022/02/25 07:24:20;;;;;;;1.50;0.75;;;;;;;;;;1854237;76;26313;-42
2022/02/25 07:26:47;;;;;;;0.90;0.70;;;;;;;;;;1856534;76;26816;-44
2022/02/25 07:29:14;;;;;;;0.55;0.40;;;;;;;;;;1851881;76;26617;-42
2022/02/25 07:31:42;;;;;;;1.77;0.60;;;;;;;;;;1856640;76;26311;-42
2022/02/25 07:34:09;;;;;;;1.10;0.60;;;;;;;;;;1859548;76;26397;-42
2022/02/25 07:36:37;;;;;;;3.65;0.55;;;;;;;;;;1857694;76;26389;-42
2022/02/25 07:39:05;;;;;;;2.67;0.55;;;;;;;;;;1848505;76;26353;-42
2022/02/25 07:41:32;;;;;;;0.57;0.40;;;;;;;;;;1855646;76;26661;-42
2022/02/25 07:43:59;;;;;;;0.50;0.50;;;;;;;;;;1853180;76;26282;-43
2022/02/25 07:46:27;;;;;;;0.50;0.50;;;;;;;;;;1856212;76;26281;-43
2022/02/25 07:48:54;;;;;;;0.55;0.50;;;;;;;;;;1821342;78;26170;-43
2022/02/25 07:51:21;;;;;;;1.32;0.50;;;;;;;;;;1805965;79;26295;-42
2022/02/25 07:53:49;;;;;;;0.65;0.50;;;;;;;;;;1807517;79;26318;-47
2022/02/25 07:56:17;;;;;;;0.90;0.62;;;;;;;;;;1801692;79;26711;-43
2022/02/25 07:58:44;;;;;;;0.93;0.50;;;;;;;;;;1804445;79;26705;-42
2022/02/25 08:01:13;;;;;;;0.60;0.45;;;;;;;;;;1807250;79;26362;-41
2022/02/25 08:03:41;;;;;;;0.40;0.40;;;;;;;;;;1808034;79;26645;-42
2022/02/25 08:06:09;;;;;;;0.40;0.40;;;;;;;;;;1801455;79;26346;-42
2022/02/25 08:08:37;;;;;;;0.40;0.40;;;;;;;;;;1805043;79;26334;-40
2022/02/25 08:11:05;;;;;;;1.40;0.40;;;;;;;;;;1808104;79;26295;-40
2022/02/25 08:13:32;;;;;;;1.02;0.47;;;;;;;;;;1803207;79;26964;-40
2022/02/25 08:16:00;;;;;;;0.40;0.40;;;;;;;;;;1807616;79;26290;-40
2022/02/25 08:18:27;;;;;;;0.70;0.50;;;;;;;;;;1801152;78;26244;-40
2022/02/25 08:20:54;;;;;;;0.37;0.37;;;;;;;;;;1827175;77;26642;-42
2022/02/25 08:23:22;;;;;;;1.27;0.70;;;;;;;;;;1797966;79;26319;-40
2022/02/25 08:25:49;;;;;;;0.40;0.40;;;;;;;;;;1792720;79;26287;-41
2022/02/25 08:28:18;;;;;;;0.30;0.30;;;;;;;;;;1801109;79;26279;-41
2022/02/25 08:30:46;;;;;;;0.75;0.47;;;;;;;;;;1807033;79;26342;-41
2022/02/25 08:33:14;;;;;;;0.40;0.40;;;;;;;;;;1807003;79;26660;-43
2022/02/25 08:35:43;;;;;;;0.50;0.42;;;;;;;;;;1806682;79;26379;-46
2022/02/25 08:38:11;;;;;;;0.62;0.55;;;;;;;;;;1808434;79;26823;-43
2022/02/25 08:40:40;;;;;;;0.40;0.40;;;;;;;;;;1797362;78;26845;-42
2022/02/25 08:43:07;;;;;;;1.60;0.30;;;;;;;;;;1803315;79;26340;-45
2022/02/25 08:45:35;;;;;;;0.30;0.30;;;;;;;;;;1800723;78;26844;-44
2022/02/25 08:48:02;;;;;;;0.40;0.40;;;;;;;;;;1833986;77;26280;-41
2022/02/25 08:50:29;;;;;;;0.40;0.40;;;;;;;;;;1819884;78;26366;-44
2022/02/25 08:52:56;;;;;;;0.35;0.35;;;;;;;;;;1818157;78;26334;-42
2022/02/25 08:55:24;;;;;;;2.40;0.57;;;;;;;;;;1822440;77;26402;-40
2022/02/25 08:57:52;;;;;;;0.40;0.40;;;;;;;;;;1799717;78;26742;-40
2022/02/25 09:00:21;;;;;;;0.30;0.30;;;;;;;;;;1811235;78;26229;-40
2022/02/25 09:02:48;;;;;;;1.00;0.40;;;;;;;;;;1799234;79;28289;-42
2022/02/25 09:05:17;;;;;;;0.37;0.33;;;;;;;;;;1813619;78;26353;-41
2022/02/25 09:07:45;;;;;;;0.23;0.23;;;;;;;;;;1813407;79;26714;-44
2022/02/25 09:10:13;;;;;;;1.17;0.50;;;;;;;;;;1811060;79;26344;-45
2022/02/25 09:12:41;;;;;;;0.40;0.40;;;;;;;;;;1810054;79;26378;-46
2022/02/25 09:15:10;;;;;;;0.98;0.50;;;;;;;;;;1802582;79;26731;-41
2022/02/25 09:17:37;;;;;;;0.65;0.60;;;;;;;;;;1806524;79;26271;-43
2022/02/25 09:20:07;;;;;;;0.40;0.40;;;;;;;;;;1821348;78;26302;-39
2022/02/25 09:22:35;;;;;;;1.07;0.40;;;;;;;;;;1791438;79;26346;-39
2022/02/25 09:25:03;;;;;;;0.50;0.50;;;;;;;;;;1782155;80;26782;-39
2022/02/25 09:27:30;;;;;;;0.57;0.40;;;;;;;;;;1798760;78;26741;-40
2022/02/25 09:29:57;;;;;;;0.40;0.40;;;;;;;;;;1802677;79;26303;-41
2022/02/25 09:32:25;;;;;;;0.98;0.50;;;;;;;;;;1809599;78;26307;-41
2022/02/25 09:34:52;;;;;;;0.55;0.30;;;;;;;;;;1821895;78;26798;-44
2022/02/25 09:37:19;;;;;;;8.35;0.50;;;;;;;;;;1821908;78;26287;-40
2022/02/25 09:39:47;;;;;;;0.50;0.50;;;;;;;;;;1824607;78;26343;-40
2022/02/25 09:42:14;;;;;;;0.33;0.33;;;;;;;;;;1807126;79;26268;-41
2022/02/25 09:44:41;;;;;;;0.30;0.30;;;;;;;;;;1806880;79;26272;-40
2022/02/25 09:47:08;;;;;;;0.30;0.30;;;;;;;;;;1793448;80;26279;-45
2022/02/25 09:49:36;;;;;;;0.50;0.45;;;;;;;;;;1804815;79;26282;-47
2022/02/25 09:52:03;;;;;;;0.40;0.40;;;;;;;;;;1803995;79;26235;-39
2022/02/25 09:54:31;;;;;;;0.40;0.40;;;;;;;;;;1806752;78;26261;-40
2022/02/25 09:56:58;;;;;;;0.72;0.50;;;;;;;;;;1808381;79;26334;-43
2022/02/25 09:59:25;;;;;;;0.40;0.40;;;;;;;;;;1797273;79;26310;-44
2022/02/25 10:01:54;;;;;;;0.30;0.30;;;;;;;;;;1804684;78;26266;-42
2022/02/25 10:04:25;;;;;;;0.30;0.30;;;;;;;;;;1799235;79;26323;-41
2022/02/25 10:06:52;;;;;;;0.37;0.37;;;;;;;;;;1802055;79;26833;-43
2022/02/25 10:09:32;;;;;;;0.40;0.40;;;;;;;;;;1805884;79;26321;-43
2022/02/25 10:12:03;;;;;;;0.45;0.45;;;;;;;;;;1806870;79;26332;-43
2022/02/25 10:14:31;;;;;;;0.53;0.40;;;;;;;;;;1795451;79;26765;-43
2022/02/25 10:17:05;;;;;;;0.30;0.30;;;;;;;;;;1797679;79;26294;-44
2022/02/25 10:19:32;;;;;;;0.40;0.40;;;;;;;;;;1806119;79;26282;-41
2022/02/25 10:22:14;;;;;;;0.45;0.45;;;;;;;;;;1805455;79;26291;-43
2022/02/25 10:24:45;;;;;;;0.40;0.40;;;;;;;;;;1777378;79;26290;-44
2022/02/25 10:27:16;;;;;;;0.40;0.40;;;;;;;;;;1789207;79;26295;-45
2022/02/25 10:30:03;;;;;;;0.42;0.30;;;;;;;;;;1787873;80;26794;-46
2022/02/25 10:32:32;;;;;;;0.30;0.30;;;;;;;;;;1785743;80;26293;-44
2022/02/25 10:35:00;;;;;;;0.40;0.40;;;;;;;;;;1811728;78;26393;-42
2022/02/25 10:37:27;;;;;;;0.40;0.40;;;;;;;;;;1808419;79;26306;-44
2022/02/25 10:39:55;;;;;;;0.30;0.30;;;;;;;;;;1801705;79;26235;-43
2022/02/25 10:42:23;;;;;;;0.55;0.55;;;;;;;;;;1793544;80;26353;-41
2022/02/25 10:44:57;;;;;;;0.60;0.60;;;;;;;;;;1792241;80;26295;-42
2022/02/25 10:47:26;;;;;;;0.30;0.30;;;;;;;;;;1793026;80;26286;-41
2022/02/25 10:50:04;;;;;;;0.40;0.40;;;;;;;;;;1792811;80;26232;-42
2022/02/25 10:52:33;;;;;;;0.40;0.40;;;;;;;;;;1809814;78;26800;-42
2022/02/25 10:55:01;;;;;;;0.40;0.40;;;;;;;;;;1794224;79;26363;-44
2022/02/25 10:57:29;;;;;;;0.50;0.50;;;;;;;;;;1837672;76;26783;-42
2022/02/25 10:59:57;;;;;;;0.47;0.40;;;;;;;;;;1852401;76;26770;-42
2022/02/25 11:02:29;;;;;;;1.35;0.50;;;;;;;;;;1840351;76;26740;-42
2022/02/25 11:05:16;;;;;;;0.50;0.50;;;;;;;;;;1851320;76;26774;-42
2022/02/25 11:07:44;;;;;;;0.30;0.30;;;;;;;;;;1838345;76;26657;-41
2022/02/25 11:10:13;;;;;;;0.30;0.30;;;;;;;;;;1846309;77;26347;-43
2022/02/25 11:12:41;;;;;;;0.37;0.37;;;;;;;;;;1848357;77;26289;-42
2022/02/25 11:15:10;;;;;;;1.85;0.45;;;;;;;;;;1845867;77;26271;-41
2022/02/25 11:17:38;;;;;;;0.47;0.47;;;;;;;;;;1848088;76;26846;-44
2022/02/25 11:20:08;;;;;;;4.03;0.40;;;;;;;;;;1843055;77;27190;-42
2022/02/25 11:22:37;;;;;;;0.30;0.30;;;;;;;;;;1851110;76;26264;-42
2022/02/25 11:25:05;;;;;;;0.40;0.40;;;;;;;;;;1847757;77;26323;-44
2022/02/25 11:27:33;;;;;;;0.30;0.30;;;;;;;;;;1841689;77;26239;-44
2022/02/25 11:30:01;;;;;;;0.53;0.50;;;;;;;;;;1847053;77;26754;-44
2022/02/25 11:32:31;;;;;;;0.28;0.28;;;;;;;;;;1854686;77;26744;-43
2022/02/25 11:34:58;;;;;;;0.82;0.60;;;;;;;;;;1830890;76;26291;-41
2022/02/25 11:37:39;;;;;;;0.55;0.55;;;;;;;;;;1827435;77;26298;-40
2022/02/25 11:40:07;;;;;;;0.40;0.40;;;;;;;;;;1847454;77;26798;-41
2022/02/25 11:42:34;;;;;;;0.50;0.50;;;;;;;;;;1848063;77;26802;-43
2022/02/25 11:45:21;;;;;;;1.45;0.30;;;;;;;;;;1848002;77;26354;-43
2022/02/25 11:47:52;;;;;;;0.40;0.40;;;;;;;;;;1826428;77;26284;-43
2022/02/25 11:50:27;;;;;;;0.40;0.40;;;;;;;;;;1852863;76;26851;-44
2022/02/25 11:53:01;;;;;;;0.40;0.40;;;;;;;;;;1832992;76;26621;-47
2022/02/25 11:55:35;;;;;;;0.30;0.30;;;;;;;;;;1854364;77;26335;-44
2022/02/25 11:58:20;;;;;;;0.40;0.40;;;;;;;;;;1865162;75;26608;-45
2022/02/25 12:01:07;;;;;;;0.60;0.60;;;;;;;;;;1859721;76;26278;-46
2022/02/25 12:03:35;;;;;;;0.33;0.33;;;;;;;;;;1850287;77;26322;-46
2022/02/25 12:06:03;;;;;;;0.62;0.40;;;;;;;;;;1862346;76;26293;-47
2022/02/25 12:08:31;;;;;;;0.40;0.40;;;;;;;;;;1863290;77;26276;-44
2022/02/25 12:11:02;;;;;;;0.42;0.30;;;;;;;;;;1849650;76;26552;-45
2022/02/25 12:13:30;;;;;;;3.40;0.60;;;;;;;;;;1848534;77;26289;-44
2022/02/25 12:15:57;;;;;;;0.30;0.30;;;;;;;;;;1861110;76;26397;-44
2022/02/25 12:18:37;;;;;;;0.30;0.28;;;;;;;;;;1864736;76;26273;-44
2022/02/25 12:21:06;;;;;;;0.30;0.30;;;;;;;;;;1859045;76;26768;-44
2022/02/25 12:23:38;;;;;;;0.40;0.40;;;;;;;;;;1860382;77;26741;-45
2022/02/25 12:26:07;;;;;;;0.53;0.53;;;;;;;;;;1856491;76;26319;-45
2022/02/25 12:28:42;;;;;;;0.30;0.30;;;;;;;;;;1856103;77;26842;-44
2022/02/25 12:31:23;;;;;;;0.30;0.30;;;;;;;;;;1852830;77;26216;-44
2022/02/25 12:33:58;;;;;;;0.33;0.33;;;;;;;;;;1863714;76;26217;-46
2022/02/25 12:36:30;;;;;;;0.70;0.50;;;;;;;;;;1866200;76;26269;-44
2022/02/25 12:38:59;;;;;;;0.47;0.47;;;;;;;;;;1862030;76;26374;-45
2022/02/25 12:41:28;;;;;;;0.30;0.30;;;;;;;;;;1852061;76;26373;-45
2022/02/25 12:44:00;;;;;;;0.42;0.42;;;;;;;;;;1861526;77;26764;-46
2022/02/25 12:46:29;;;;;;;0.50;0.50;;;;;;;;;;1857451;77;26331;-45
2022/02/25 12:48:56;;;;;;;1.40;0.40;;;;;;;;;;1861344;77;26334;-44
2022/02/25 12:51:25;;;;;;;0.37;0.37;;;;;;;;;;1839550;77;26265;-44
2022/02/25 12:53:56;;;;;;;0.45;0.45;;;;;;;;;;1864598;75;26351;-46
2022/02/25 12:56:25;;;;;;;0.40;0.40;;;;;;;;;;1858281;75;26305;-44
2022/02/25 12:58:54;;;;;;;0.50;0.50;;;;;;;;;;1856360;76;26285;-48
2022/02/25 13:01:25;;;;;;;0.40;0.40;;;;;;;;;;1854949;76;26299;-47
2022/02/25 13:03:59;;;;;;;0.75;0.50;;;;;;;;;;1813362;78;26315;-53
2022/02/25 13:06:30;;;;;;;0.37;0.37;;;;;;;;;;1822407;78;26713;-50
2022/02/25 13:08:59;;;;;;;0.78;0.50;;;;;;;;;;1822560;77;26299;-48
2022/02/25 13:11:26;;;;;;;0.40;0.40;;;;;;;;;;1821180;78;26260;-47
2022/02/25 13:13:55;;;;;;;0.60;0.60;;;;;;;;;;1822557;78;26244;-49
2022/02/25 13:16:23;;;;;;;0.50;0.50;;;;;;;;;;1817717;78;26700;-50
2022/02/25 13:18:51;;;;;;;0.65;0.65;;;;;;;;;;1817142;78;26891;-50
2022/02/25 13:21:18;;;;;;;0.40;0.40;;;;;;;;;;1804218;78;26288;-52
2022/02/25 13:23:50;;;;;;;0.50;0.50;;;;;;;;;;1799518;78;26299;-47
2022/02/25 13:26:22;;;;;;;0.55;0.53;;;;;;;;;;1807636;79;26357;-49
2022/02/25 13:28:50;;;;;;;0.50;0.50;;;;;;;;;;1802052;79;26349;-47
2022/02/25 13:31:27;;;;;;;0.57;0.57;;;;;;;;;;1804315;79;26299;-45
2022/02/25 13:33:55;;;;;;;0.50;0.50;;;;;;;;;;1805970;79;26376;-51
2022/02/25 13:36:23;;;;;;;0.60;0.60;;;;;;;;;;1806596;79;26275;-48
2022/02/25 13:38:58;;;;;;;1.75;0.55;;;;;;;;;;1802952;79;26338;-50
2022/02/25 13:41:32;;;;;;;0.42;0.42;;;;;;;;;;1778105;79;26285;-47
2022/02/25 13:44:00;;;;;;;1.50;0.68;;;;;;;;;;1819130;78;26281;-48
2022/02/25 13:46:29;;;;;;;0.50;0.50;;;;;;;;;;1806929;79;26813;-47
2022/02/25 13:54:37;;;;;;;0.50;0.50;;;;;;;;;;1807684;79;26851;-48
2022/02/25 13:57:05;;;;;;;0.50;0.50;;;;;;;;;;1807294;78;26804;-48
2022/02/25 13:59:42;;;;;;;0.30;0.30;;;;;;;;;;1807715;79;26358;-47
2022/02/25 14:02:14;;;;;;;0.60;0.60;;;;;;;;;;1806090;79;26369;-44
2022/02/25 14:04:42;;;;;;;0.40;0.40;;;;;;;;;;1799812;78;26727;-44
2022/02/25 14:07:09;;;;;;;0.50;0.50;;;;;;;;;;1803641;79;26298;-43
2022/02/25 14:09:37;;;;;;;0.50;0.50;;;;;;;;;;1807198;79;26833;-47
2022/02/25 14:12:06;;;;;;;0.50;0.50;;;;;;;;;;1808137;79;26794;-45
2022/02/25 14:14:35;;;;;;;0.40;0.40;;;;;;;;;;1808308;79;26408;-43
2022/02/25 14:17:03;;;;;;;0.40;0.40;;;;;;;;;;1800084;79;26380;-46
2022/02/25 14:19:30;;;;;;;0.40;0.40;;;;;;;;;;1802214;79;26608;-49
2022/02/25 14:21:59;;;;;;;0.30;0.30;;;;;;;;;;1799066;78;26353;-49
2022/02/25 14:24:28;;;;;;;0.50;0.50;;;;;;;;;;1792122;79;28238;-45
2022/02/25 14:27:08;;;;;;;0.40;0.40;;;;;;;;;;1802130;79;26303;-49
2022/02/25 14:29:36;;;;;;;0.40;0.40;;;;;;;;;;1820976;78;26378;-48
2022/02/25 14:32:05;;;;;;;0.40;0.40;;;;;;;;;;1822546;78;26365;-46
2022/02/25 14:34:36;;;;;;;0.42;0.42;;;;;;;;;;1801141;79;26811;-46
2022/02/25 14:37:04;;;;;;;2.37;0.50;;;;;;;;;;1804746;79;26292;-48
2022/02/25 14:39:31;;;;;;;0.45;0.45;;;;;;;;;;1792549;79;26802;-47
2022/02/25 14:41:58;;;;;;;1.45;0.30;;;;;;;;;;1801264;79;26267;-48
2022/02/25 14:44:26;;;;;;;0.45;0.45;;;;;;;;;;1790012;79;26367;-45
2022/02/25 14:46:53;;;;;;;0.82;0.60;;;;;;;;;;1808361;79;26288;-52
2022/02/25 14:49:21;;;;;;;0.40;0.40;;;;;;;;;;1803159;79;26275;-45
2022/02/25 14:51:50;;;;;;;0.35;0.35;;;;;;;;;;1806367;79;26261;-45
2022/02/25 14:54:18;;;;;;;0.40;0.40;;;;;;;;;;1786780;79;26275;-47
2022/02/25 14:56:46;;;;;;;0.53;0.53;;;;;;;;;;1793777;79;28766;-52
2022/02/25 14:59:14;;;;;;;0.60;0.42;;;;;;;;;;1833577;77;26308;-49
2022/02/25 15:01:41;;;;;;;0.72;0.50;;;;;;;;;;1855000;77;26340;-46